createdAt,value
2017-01-27T00:00:03.565Z,99.99
2017-01-27T00:05:03.500Z,99.99
2017-01-27T00:10:03.452Z,99.99
2017-01-27T00:15:03.190Z,99.99
2017-01-27T00:20:03.087Z,99.99
2017-01-27T00:25:02.807Z,99.99
2017-01-27T00:30:02.739Z,99.99
2017-01-27T00:35:03.498Z,99.99
2017-01-27T00:40:03.296Z,99.99
2017-01-27T00:45:03.127Z,99.99
2017-01-27T00:50:02.845Z,99.99
2017-01-27T00:55:03.577Z,99.99
2017-01-27T01:00:03.309Z,99.99
2017-01-27T01:05:02.808Z,99.99
2017-01-27T01:10:03.636Z,99.99
2017-01-27T01:15:03.348Z,99.99
2017-01-27T01:20:03.002Z,99.99
2017-01-27T01:25:02.798Z,99.99
2017-01-27T01:30:03.529Z,99.99
2017-01-27T01:35:03.179Z,99.99
2017-01-27T01:40:02.908Z,99.99
2017-01-27T01:45:03.656Z,99.99
2017-01-27T01:50:03.416Z,99.99
2017-01-27T01:55:03.230Z,99.99
2017-01-27T02:00:03.216Z,99.99
2017-01-27T02:05:02.994Z,99.99
2017-01-27T02:10:02.775Z,99.99
2017-01-27T02:15:03.582Z,99.99
2017-01-27T02:20:03.352Z,99.99
2017-01-27T02:25:03.191Z,99.99
2017-01-27T02:30:02.988Z,99.99
2017-01-27T02:35:02.748Z,99.99
2017-01-27T02:40:03.643Z,99.99
2017-01-27T02:45:03.341Z,99.99
2017-01-27T02:50:02.958Z,99.99
2017-01-27T02:55:02.848Z,99.99
2017-01-27T03:00:03.693Z,99.99
2017-01-27T03:05:03.328Z,99.99
2017-01-27T03:10:03.144Z,99.99
2017-01-27T03:15:02.832Z,99.99
2017-01-27T03:20:03.551Z,99.99
2017-01-27T03:25:03.302Z,99.99
2017-01-27T03:30:03.026Z,99.99
2017-01-27T03:35:02.741Z,99.99
2017-01-27T03:40:03.518Z,99.99
2017-01-27T03:45:03.158Z,99.99
2017-01-27T03:50:02.849Z,99.99
2017-01-27T03:55:03.617Z,99.99
2017-01-27T04:00:03.405Z,99.99
2017-01-27T04:05:03.292Z,99.99
2017-01-27T04:10:03.120Z,99.99
2017-01-27T04:15:02.937Z,99.99
2017-01-27T04:20:03.691Z,99.99
2017-01-27T04:25:03.458Z,99.99
2017-01-27T04:30:03.182Z,99.99
2017-01-27T04:35:03.031Z,99.99
2017-01-27T04:40:03.014Z,99.99
2017-01-27T04:45:02.765Z,99.99
2017-01-27T04:50:03.537Z,99.99
2017-01-27T04:55:03.023Z,99.99
2017-01-27T05:00:02.786Z,99.99
2017-01-27T05:05:03.503Z,99.99
2017-01-27T05:10:03.454Z,99.99
2017-01-27T05:15:03.205Z,99.99
2017-01-27T05:20:17.797Z,99.99
2017-01-27T05:25:03.421Z,99.99
2017-01-27T05:30:03.255Z,99.99
2017-01-27T05:35:03.071Z,99.99
2017-01-27T05:40:02.843Z,99.99
2017-01-27T05:45:03.508Z,99.99
2017-01-27T05:50:03.093Z,99.99
2017-01-27T05:55:02.840Z,99.99
2017-01-27T06:00:02.752Z,99.99
2017-01-27T06:05:03.313Z,99.99
2017-01-27T06:10:03.285Z,99.99
2017-01-27T06:15:02.928Z,99.99
2017-01-27T06:20:02.829Z,99.99
2017-01-27T06:25:03.487Z,99.99
2017-01-27T06:30:03.289Z,99.99
2017-01-27T06:35:02.938Z,99.99
2017-01-27T06:40:03.623Z,99.99
2017-01-27T06:45:03.417Z,99.99
2017-01-27T06:50:02.983Z,99.99
2017-01-27T06:55:02.980Z,99.99
2017-01-27T07:00:02.806Z,99.99
2017-01-27T07:05:02.739Z,99.99
2017-01-27T07:10:03.647Z,99.99
2017-01-27T07:15:03.239Z,99.99
2017-01-27T07:20:03.230Z,99.99
2017-01-27T07:25:02.899Z,99.99
2017-01-27T07:30:02.769Z,99.99
2017-01-27T07:35:03.300Z,99.99
2017-01-27T07:40:03.091Z,99.99
2017-01-27T07:45:02.725Z,99.99
2017-01-27T07:50:03.412Z,99.99
2017-01-27T07:55:03.238Z,99.99
2017-01-27T08:00:03.013Z,99.99
2017-01-27T08:05:02.714Z,99.99
2017-01-27T08:10:03.661Z,99.99
2017-01-27T08:15:03.317Z,99.99
2017-01-27T08:20:02.963Z,99.99
2017-01-27T08:25:02.856Z,99.99
2017-01-27T08:30:03.540Z,99.99
2017-01-27T08:35:03.111Z,99.99
2017-01-27T08:40:02.916Z,99.99
2017-01-27T08:45:03.598Z,99.99
2017-01-27T08:50:03.189Z,99.99
2017-01-27T08:55:02.904Z,99.99
2017-01-27T09:00:03.454Z,99.99
2017-01-27T09:05:03.084Z,99.99
2017-01-27T09:10:03.046Z,99.99
2017-01-27T09:15:02.750Z,99.99
2017-01-27T09:20:03.380Z,99.99
2017-01-27T09:25:03.110Z,99.99
2017-01-27T09:30:03.023Z,99.99
2017-01-27T09:35:03.638Z,99.99
2017-01-27T09:40:03.453Z,99.99
2017-01-27T09:45:03.494Z,99.99
2017-01-27T09:50:03.226Z,99.99
2017-01-27T09:55:02.820Z,99.99
2017-01-27T10:00:02.758Z,99.99
2017-01-27T10:05:03.463Z,99.99
2017-01-27T10:10:03.616Z,99.99
2017-01-27T10:15:03.678Z,97.92
2017-01-27T10:20:03.667Z,94.23
2017-01-27T10:25:02.917Z,93.6
2017-01-27T10:30:02.920Z,88.86
2017-01-27T10:35:03.027Z,87.38
2017-01-27T10:40:03.306Z,85.11
2017-01-27T10:45:02.971Z,84.72
2017-01-27T10:50:03.616Z,83.49
2017-01-27T10:55:03.374Z,82.73
2017-01-27T11:00:03.239Z,82.77
2017-01-27T11:05:03.219Z,79.3
2017-01-27T11:10:03.309Z,77.81
2017-01-27T11:15:03.068Z,75.91
2017-01-27T11:20:02.882Z,74.71
2017-01-27T11:25:03.611Z,74.14
2017-01-27T11:30:03.289Z,73.66
2017-01-27T11:35:03.362Z,72.62
2017-01-27T11:40:02.767Z,72.9
2017-01-27T11:45:02.969Z,73.03
2017-01-27T11:50:03.089Z,72.71
2017-01-27T11:55:03.013Z,73.66
2017-01-27T12:00:03.063Z,74.04
2017-01-27T12:05:02.887Z,74.33
2017-01-27T12:10:02.806Z,73.41
2017-01-27T12:15:02.818Z,73.22
2017-01-27T12:20:02.801Z,73.1
2017-01-27T12:25:02.833Z,74.2
2017-01-27T12:30:02.840Z,75.05
2017-01-27T12:35:03.590Z,76.73
2017-01-27T12:40:03.580Z,78.53
2017-01-27T12:45:03.365Z,79.01
2017-01-27T12:50:03.430Z,79.83
2017-01-27T12:55:03.407Z,80.49
2017-01-27T13:00:03.417Z,81.06
2017-01-27T13:05:03.365Z,81.44
2017-01-27T13:10:03.431Z,81.92
2017-01-27T13:15:03.633Z,81.92
2017-01-27T13:20:03.642Z,81.35
2017-01-27T13:25:03.486Z,81.16
2017-01-27T13:30:03.427Z,81.44
2017-01-27T13:35:03.493Z,81.63
2017-01-27T13:40:03.409Z,81.73
2017-01-27T13:45:03.607Z,81.29
2017-01-27T13:50:03.667Z,81.2
2017-01-27T13:55:03.687Z,81.1
2017-01-27T14:00:03.309Z,81.01
2017-01-27T14:05:03.245Z,81.54
2017-01-27T14:10:03.638Z,81.92
2017-01-27T14:15:03.707Z,81.73
2017-01-27T14:20:02.751Z,81.44
2017-01-27T14:25:02.881Z,81.73
2017-01-27T14:30:03.671Z,81.67
2017-01-27T14:35:03.584Z,81.35
2017-01-27T14:40:03.101Z,82.1
2017-01-27T14:45:03.271Z,82.92
2017-01-27T14:50:03.189Z,83.59
2017-01-27T14:55:03.588Z,84.16
2017-01-27T15:00:03.647Z,84.44
2017-01-27T15:05:03.573Z,84.82
2017-01-27T15:10:02.744Z,85.2
2017-01-27T15:15:03.543Z,85.39
2017-01-27T15:20:03.467Z,85.72
2017-01-27T15:25:02.851Z,86.2
2017-01-27T15:30:02.863Z,86.3
2017-01-27T15:35:03.045Z,86.49
2017-01-27T15:40:02.996Z,86.87
2017-01-27T15:45:02.966Z,87.24
2017-01-27T15:50:03.270Z,87.49
2017-01-27T15:55:03.222Z,87.96
2017-01-27T16:00:03.110Z,88.24
2017-01-27T16:05:02.906Z,88.53
2017-01-27T16:10:03.159Z,88.81
2017-01-27T16:15:03.302Z,89.2
2017-01-27T16:20:03.461Z,89.39
2017-01-27T16:25:03.650Z,89.67
2017-01-27T16:30:03.303Z,90.05
2017-01-27T16:35:03.299Z,90.19
2017-01-27T16:40:03.735Z,90.57
2017-01-27T16:45:02.774Z,90.76
2017-01-27T16:50:03.622Z,90.86
2017-01-27T16:55:03.511Z,91.05
2017-01-27T17:00:03.215Z,91.33
2017-01-27T17:05:02.949Z,91.52
2017-01-27T17:10:02.988Z,91.8
2017-01-27T17:15:03.279Z,92.18
2017-01-27T17:20:02.912Z,92.57
2017-01-27T17:25:02.755Z,92.66
2017-01-27T17:30:03.573Z,92.57
2017-01-27T17:35:03.362Z,92.57
2017-01-27T17:40:03.582Z,92.38
2017-01-27T17:45:03.587Z,92.28
2017-01-27T17:50:02.842Z,92.38
2017-01-27T17:55:03.722Z,92.57
2017-01-27T18:00:03.301Z,92.66
2017-01-27T18:05:03.139Z,92.66
2017-01-27T18:10:02.904Z,92.76
2017-01-27T18:15:03.536Z,92.85
2017-01-27T18:20:03.360Z,92.76
2017-01-27T18:25:03.169Z,92.76
2017-01-27T18:30:02.904Z,91.9
2017-01-27T18:35:02.873Z,91.33
2017-01-27T18:40:03.530Z,91.05
2017-01-27T18:45:03.347Z,90.1
2017-01-27T18:50:02.970Z,89.62
2017-01-27T18:55:02.862Z,89.72
2017-01-27T19:00:02.797Z,89.72
2017-01-27T19:05:02.760Z,89.53
2017-01-27T19:10:03.473Z,89.43
2017-01-27T19:15:03.458Z,89.72
2017-01-27T19:20:03.550Z,89.91
2017-01-27T19:25:03.333Z,90.1
2017-01-27T19:30:03.444Z,90.1
2017-01-27T19:35:03.655Z,90.24
2017-01-27T19:40:03.636Z,90.34
2017-01-27T19:45:03.419Z,90.34
2017-01-27T19:50:03.254Z,90.72
2017-01-27T19:55:03.567Z,91
2017-01-27T20:00:03.251Z,91.28
2017-01-27T20:05:02.911Z,91.57
2017-01-27T20:10:02.844Z,91.66
2017-01-27T20:15:02.907Z,91.76
2017-01-27T20:20:03.682Z,91.66
2017-01-27T20:25:03.355Z,91.85
2017-01-27T20:30:03.297Z,92.04
2017-01-27T20:35:03.004Z,92.33
2017-01-27T20:40:03.057Z,92.71
2017-01-27T20:45:02.838Z,92.99
2017-01-27T20:50:03.474Z,93.08
2017-01-27T20:55:03.358Z,92.99
2017-01-27T21:00:03.082Z,92.61
2017-01-27T21:05:03.028Z,92.14
2017-01-27T21:10:02.897Z,91.85
2017-01-27T21:15:03.632Z,91
2017-01-27T21:20:03.389Z,89.58
2017-01-27T21:25:03.406Z,88.35
2017-01-27T21:30:03.333Z,87.77
2017-01-27T21:35:02.919Z,87.77
2017-01-27T21:40:02.828Z,87.4
2017-01-27T21:45:03.664Z,87.4
2017-01-27T21:50:02.835Z,87.12
2017-01-27T21:55:03.559Z,87.12
2017-01-27T22:00:03.568Z,86.93
2017-01-27T22:05:03.379Z,86.45
2017-01-27T22:10:03.133Z,86.35
2017-01-27T22:15:02.936Z,85.88
2017-01-27T22:20:02.791Z,86.16
2017-01-27T22:25:03.375Z,86.93
2017-01-27T22:30:03.278Z,87.3
2017-01-27T22:35:03.131Z,87.26
2017-01-27T22:40:02.985Z,87.16
2017-01-27T22:45:03.701Z,87.45
2017-01-27T22:50:03.304Z,87.26
2017-01-27T22:55:02.921Z,87.35
2017-01-27T23:00:02.798Z,87.54
2017-01-27T23:05:03.737Z,87.54
2017-01-27T23:10:03.583Z,87.45
2017-01-27T23:15:03.355Z,87.16
2017-01-27T23:20:03.111Z,87.26
2017-01-27T23:25:03.155Z,87.35
2017-01-27T23:30:02.762Z,87.45
2017-01-27T23:35:03.510Z,87.73
2017-01-27T23:40:03.192Z,88.21
2017-01-27T23:45:02.791Z,88.4
2017-01-27T23:50:03.709Z,88.21
2017-01-27T23:55:03.495Z,88.02
